Portada
METAR-TAF:

METAR-TAF

Aeropuertos :

Podor, Senegal

latitud: 16-39N, longitud: 014-58W, altitud: 6 m

Observación

El informe se hizo hace 57 minutos, a las 03:00 UTC
Viento 2 kt del noreste
Temperatura 24°C
Humedad 29%
Presión 1013 hPa
Visibilidad 10 km o más
sin nubes por debajo de 1500 m y sin presencia de cumulonimbus.

METAR: GOSP 230300Z 04002KT CAVOK 24/05 Q1013

Hora: 03:57 (03:57 UTC)


TAF: falta

Observaciones y pronósticos meteorológicos de más de 4000 aeropuertos (mensajes METAR y TAF).

Los puntos amarillos y rojos representan las estaciones disponibles.

Ponga el ratón en el punto deseado para ver el nombre de la estación.

Haga clic para ver las observaciones y los pronósticos meteorológicos.

Para cambiar el mapa : haga clic en los botones verdes con una cruz de color negro para hacer un zoom, en el botón verde con un guión para alejar o en las flechas verdes para mapas adyacentes.


METAR-TAF: